sensor_id;sensor_type;location;lat;lon;timestamp;P1;durP1;ratioP1;P2;durP2;ratioP2
18196;SDS011;9224;52.422;13.024;2022-08-25T00:00:43;12.90;;;11.73;;
18196;SDS011;9224;52.422;13.024;2022-08-25T00:03:09;12.30;;;11.20;;
18196;SDS011;9224;52.422;13.024;2022-08-25T00:05:37;13.20;;;11.97;;
18196;SDS011;9224;52.422;13.024;2022-08-25T00:08:04;10.98;;;10.07;;
18196;SDS011;9224;52.422;13.024;2022-08-25T00:10:31;13.13;;;11.05;;
18196;SDS011;9224;52.422;13.024;2022-08-25T00:12:59;12.40;;;11.30;;
18196;SDS011;9224;52.422;13.024;2022-08-25T00:15:26;12.65;;;11.40;;
18196;SDS011;9224;52.422;13.024;2022-08-25T00:17:54;12.68;;;11.48;;
18196;SDS011;9224;52.422;13.024;2022-08-25T00:20:21;13.15;;;11.85;;
18196;SDS011;9224;52.422;13.024;2022-08-25T00:22:48;12.95;;;11.63;;
18196;SDS011;9224;52.422;13.024;2022-08-25T00:25:14;13.80;;;12.50;;
18196;SDS011;9224;52.422;13.024;2022-08-25T00:27:41;13.40;;;12.00;;
18196;SDS011;9224;52.422;13.024;2022-08-25T00:30:09;13.05;;;11.85;;
18196;SDS011;9224;52.422;13.024;2022-08-25T00:32:36;13.20;;;11.95;;
18196;SDS011;9224;52.422;13.024;2022-08-25T00:35:04;13.88;;;12.55;;
18196;SDS011;9224;52.422;13.024;2022-08-25T00:37:31;13.55;;;12.15;;
18196;SDS011;9224;52.422;13.024;2022-08-25T00:39:58;13.38;;;12.07;;
18196;SDS011;9224;52.422;13.024;2022-08-25T00:42:24;13.65;;;12.35;;
18196;SDS011;9224;52.422;13.024;2022-08-25T00:44:51;13.13;;;11.85;;
18196;SDS011;9224;52.422;13.024;2022-08-25T00:47:18;13.65;;;12.38;;
18196;SDS011;9224;52.422;13.024;2022-08-25T00:49:45;12.98;;;11.75;;
18196;SDS011;9224;52.422;13.024;2022-08-25T00:52:15;13.10;;;11.90;;
18196;SDS011;9224;52.422;13.024;2022-08-25T00:54:44;13.55;;;12.32;;
18196;SDS011;9224;52.422;13.024;2022-08-25T00:57:14;13.15;;;11.85;;
18196;SDS011;9224;52.422;13.024;2022-08-25T00:59:41;13.82;;;12.40;;
18196;SDS011;9224;52.422;13.024;2022-08-25T01:02:09;14.18;;;12.70;;
18196;SDS011;9224;52.422;13.024;2022-08-25T01:04:36;13.73;;;12.52;;
18196;SDS011;9224;52.422;13.024;2022-08-25T01:07:03;13.25;;;11.98;;
18196;SDS011;9224;52.422;13.024;2022-08-25T01:09:32;13.73;;;12.32;;
18196;SDS011;9224;52.422;13.024;2022-08-25T01:11:59;14.00;;;12.10;;
18196;SDS011;9224;52.422;13.024;2022-08-25T01:14:26;13.33;;;12.13;;
18196;SDS011;9224;52.422;13.024;2022-08-25T01:16:55;14.13;;;12.02;;
18196;SDS011;9224;52.422;13.024;2022-08-25T01:19:23;13.23;;;11.93;;
18196;SDS011;9224;52.422;13.024;2022-08-25T01:21:52;14.02;;;12.52;;
18196;SDS011;9224;52.422;13.024;2022-08-25T01:24:21;12.98;;;11.65;;
18196;SDS011;9224;52.422;13.024;2022-08-25T01:26:51;13.77;;;12.48;;
18196;SDS011;9224;52.422;13.024;2022-08-25T01:29:18;13.60;;;12.20;;
18196;SDS011;9224;52.422;13.024;2022-08-25T01:31:51;13.25;;;11.98;;
18196;SDS011;9224;52.422;13.024;2022-08-25T01:34:21;14.30;;;11.88;;
18196;SDS011;9224;52.422;13.024;2022-08-25T01:36:48;13.40;;;12.20;;
18196;SDS011;9224;52.422;13.024;2022-08-25T01:39:16;13.48;;;12.18;;
18196;SDS011;9224;52.422;13.024;2022-08-25T01:41:53;11.98;;;10.98;;
18196;SDS011;9224;52.422;13.024;2022-08-25T01:44:29;12.47;;;11.37;;
18196;SDS011;9224;52.422;13.024;2022-08-25T01:46:57;12.65;;;11.35;;
18196;SDS011;9224;52.422;13.024;2022-08-25T01:49:23;11.27;;;10.18;;
18196;SDS011;9224;52.422;13.024;2022-08-25T01:51:51;10.63;;;9.60;;
18196;SDS011;9224;52.422;13.024;2022-08-25T01:54:19;11.70;;;10.57;;
18196;SDS011;9224;52.422;13.024;2022-08-25T01:56:46;11.48;;;10.40;;
18196;SDS011;9224;52.422;13.024;2022-08-25T01:59:13;12.88;;;11.63;;
18196;SDS011;9224;52.422;13.024;2022-08-25T02:01:41;15.55;;;13.10;;
18196;SDS011;9224;52.422;13.024;2022-08-25T02:04:07;13.10;;;11.90;;
18196;SDS011;9224;52.422;13.024;2022-08-25T02:06:34;12.57;;;11.38;;
18196;SDS011;9224;52.422;13.024;2022-08-25T02:09:02;13.52;;;12.15;;
18196;SDS011;9224;52.422;13.024;2022-08-25T02:11:32;14.32;;;12.90;;
18196;SDS011;9224;52.422;13.024;2022-08-25T02:13:59;13.93;;;12.52;;
18196;SDS011;9224;52.422;13.024;2022-08-25T02:16:26;13.13;;;11.93;;
18196;SDS011;9224;52.422;13.024;2022-08-25T02:18:54;13.88;;;12.55;;
18196;SDS011;9224;52.422;13.024;2022-08-25T02:21:21;14.20;;;12.80;;
18196;SDS011;9224;52.422;13.024;2022-08-25T02:23:48;16.63;;;13.82;;
18196;SDS011;9224;52.422;13.024;2022-08-25T02:26:14;13.88;;;12.57;;
18196;SDS011;9224;52.422;13.024;2022-08-25T02:28:44;14.73;;;13.25;;
18196;SDS011;9224;52.422;13.024;2022-08-25T02:31:11;15.00;;;13.50;;
18196;SDS011;9224;52.422;13.024;2022-08-25T02:33:37;16.30;;;14.60;;
18196;SDS011;9224;52.422;13.024;2022-08-25T02:36:04;14.35;;;13.05;;
18196;SDS011;9224;52.422;13.024;2022-08-25T02:38:31;15.83;;;14.23;;
18196;SDS011;9224;52.422;13.024;2022-08-25T02:41:00;14.57;;;13.07;;
18196;SDS011;9224;52.422;13.024;2022-08-25T02:43:54;15.30;;;13.80;;
18196;SDS011;9224;52.422;13.024;2022-08-25T02:46:40;15.30;;;13.82;;
18196;SDS011;9224;52.422;13.024;2022-08-25T02:49:25;15.10;;;13.60;;
18196;SDS011;9224;52.422;13.024;2022-08-25T02:52:10;15.35;;;13.70;;
18196;SDS011;9224;52.422;13.024;2022-08-25T02:54:55;15.13;;;13.68;;
18196;SDS011;9224;52.422;13.024;2022-08-25T02:57:41;17.17;;;15.37;;
18196;SDS011;9224;52.422;13.024;2022-08-25T03:00:27;16.17;;;14.55;;
18196;SDS011;9224;52.422;13.024;2022-08-25T03:03:13;17.52;;;15.45;;
18196;SDS011;9224;52.422;13.024;2022-08-25T03:05:58;14.93;;;13.50;;
18196;SDS011;9224;52.422;13.024;2022-08-25T03:08:44;16.73;;;15.07;;
18196;SDS011;9224;52.422;13.024;2022-08-25T03:11:29;16.55;;;14.85;;
18196;SDS011;9224;52.422;13.024;2022-08-25T03:14:14;15.18;;;13.68;;
18196;SDS011;9224;52.422;13.024;2022-08-25T03:16:42;16.83;;;15.23;;
18196;SDS011;9224;52.422;13.024;2022-08-25T03:19:08;16.38;;;14.85;;
18196;SDS011;9224;52.422;13.024;2022-08-25T03:21:35;15.85;;;14.35;;
18196;SDS011;9224;52.422;13.024;2022-08-25T03:24:02;18.05;;;15.88;;
18196;SDS011;9224;52.422;13.024;2022-08-25T03:26:29;16.27;;;14.68;;
18196;SDS011;9224;52.422;13.024;2022-08-25T03:29:13;16.55;;;14.90;;
18196;SDS011;9224;52.422;13.024;2022-08-25T03:31:40;17.52;;;15.82;;
18196;SDS011;9224;52.422;13.024;2022-08-25T03:34:10;17.58;;;15.77;;
18196;SDS011;9224;52.422;13.024;2022-08-25T03:36:36;17.53;;;15.83;;
18196;SDS011;9224;52.422;13.024;2022-08-25T03:39:04;15.73;;;14.25;;
18196;SDS011;9224;52.422;13.024;2022-08-25T03:41:32;15.75;;;14.25;;
18196;SDS011;9224;52.422;13.024;2022-08-25T03:44:00;17.23;;;15.43;;
18196;SDS011;9224;52.422;13.024;2022-08-25T03:46:29;18.00;;;16.10;;
18196;SDS011;9224;52.422;13.024;2022-08-25T03:48:56;17.55;;;15.88;;
18196;SDS011;9224;52.422;13.024;2022-08-25T03:51:25;16.95;;;15.35;;
18196;SDS011;9224;52.422;13.024;2022-08-25T03:53:53;16.90;;;15.20;;
18196;SDS011;9224;52.422;13.024;2022-08-25T03:56:20;18.02;;;16.33;;
18196;SDS011;9224;52.422;13.024;2022-08-25T03:58:47;18.50;;;16.85;;
18196;SDS011;9224;52.422;13.024;2022-08-25T04:01:14;17.90;;;16.15;;
18196;SDS011;9224;52.422;13.024;2022-08-25T04:03:41;16.90;;;15.27;;
18196;SDS011;9224;52.422;13.024;2022-08-25T04:06:08;17.25;;;15.63;;
18196;SDS011;9224;52.422;13.024;2022-08-25T04:08:36;17.25;;;15.50;;
18196;SDS011;9224;52.422;13.024;2022-08-25T04:11:06;16.38;;;14.88;;
18196;SDS011;9224;52.422;13.024;2022-08-25T04:13:34;15.60;;;14.18;;
18196;SDS011;9224;52.422;13.024;2022-08-25T04:16:01;15.60;;;14.20;;
18196;SDS011;9224;52.422;13.024;2022-08-25T04:18:28;16.52;;;14.95;;
18196;SDS011;9224;52.422;13.024;2022-08-25T04:21:00;16.20;;;14.70;;
18196;SDS011;9224;52.422;13.024;2022-08-25T04:23:27;16.00;;;14.50;;
18196;SDS011;9224;52.422;13.024;2022-08-25T04:25:55;14.50;;;13.20;;
18196;SDS011;9224;52.422;13.024;2022-08-25T04:28:21;14.07;;;12.77;;
18196;SDS011;9224;52.422;13.024;2022-08-25T04:30:48;14.63;;;13.32;;
18196;SDS011;9224;52.422;13.024;2022-08-25T04:33:14;14.65;;;13.35;;
18196;SDS011;9224;52.422;13.024;2022-08-25T04:35:45;13.75;;;12.55;;
18196;SDS011;9224;52.422;13.024;2022-08-25T04:38:12;13.15;;;12.02;;
18196;SDS011;9224;52.422;13.024;2022-08-25T04:40:39;13.20;;;12.07;;
18196;SDS011;9224;52.422;13.024;2022-08-25T04:43:06;13.68;;;12.57;;
18196;SDS011;9224;52.422;13.024;2022-08-25T04:45:35;13.60;;;12.40;;
18196;SDS011;9224;52.422;13.024;2022-08-25T04:48:02;13.27;;;12.18;;
18196;SDS011;9224;52.422;13.024;2022-08-25T04:50:29;12.25;;;11.25;;
18196;SDS011;9224;52.422;13.024;2022-08-25T04:52:55;14.02;;;12.65;;
18196;SDS011;9224;52.422;13.024;2022-08-25T04:55:22;15.63;;;14.02;;
18196;SDS011;9224;52.422;13.024;2022-08-25T04:57:49;19.88;;;17.88;;
18196;SDS011;9224;52.422;13.024;2022-08-25T05:00:17;20.58;;;18.55;;
18196;SDS011;9224;52.422;13.024;2022-08-25T05:02:44;21.00;;;18.80;;
18196;SDS011;9224;52.422;13.024;2022-08-25T05:05:10;21.23;;;19.13;;
18196;SDS011;9224;52.422;13.024;2022-08-25T05:07:37;22.77;;;19.55;;
18196;SDS011;9224;52.422;13.024;2022-08-25T05:10:04;22.83;;;20.40;;
18196;SDS011;9224;52.422;13.024;2022-08-25T05:12:31;22.38;;;20.25;;
18196;SDS011;9224;52.422;13.024;2022-08-25T05:14:58;23.35;;;20.95;;
18196;SDS011;9224;52.422;13.024;2022-08-25T05:17:46;24.47;;;21.97;;
18196;SDS011;9224;52.422;13.024;2022-08-25T05:20:12;23.83;;;21.45;;
18196;SDS011;9224;52.422;13.024;2022-08-25T05:22:39;23.83;;;21.43;;
18196;SDS011;9224;52.422;13.024;2022-08-25T05:25:07;24.17;;;21.70;;
18196;SDS011;9224;52.422;13.024;2022-08-25T05:27:33;25.50;;;22.80;;
18196;SDS011;9224;52.422;13.024;2022-08-25T05:30:00;28.20;;;25.20;;
18196;SDS011;9224;52.422;13.024;2022-08-25T05:32:26;32.05;;;27.25;;
18196;SDS011;9224;52.422;13.024;2022-08-25T05:34:54;30.38;;;26.92;;
18196;SDS011;9224;52.422;13.024;2022-08-25T05:37:21;32.15;;;27.58;;
18196;SDS011;9224;52.422;13.024;2022-08-25T05:39:47;30.80;;;27.02;;
18196;SDS011;9224;52.422;13.024;2022-08-25T05:42:14;32.47;;;28.05;;
18196;SDS011;9224;52.422;13.024;2022-08-25T05:44:40;29.77;;;26.65;;
18196;SDS011;9224;52.422;13.024;2022-08-25T05:47:07;30.20;;;26.08;;
18196;SDS011;9224;52.422;13.024;2022-08-25T05:49:33;32.83;;;27.63;;
18196;SDS011;9224;52.422;13.024;2022-08-25T05:52:01;33.65;;;28.92;;
18196;SDS011;9224;52.422;13.024;2022-08-25T05:54:28;32.15;;;28.25;;
18196;SDS011;9224;52.422;13.024;2022-08-25T05:56:55;34.63;;;29.45;;
18196;SDS011;9224;52.422;13.024;2022-08-25T05:59:22;32.78;;;28.63;;
18196;SDS011;9224;52.422;13.024;2022-08-25T06:01:49;34.22;;;28.70;;
18196;SDS011;9224;52.422;13.024;2022-08-25T06:04:33;35.65;;;29.63;;
18196;SDS011;9224;52.422;13.024;2022-08-25T06:07:01;36.45;;;29.80;;
18196;SDS011;9224;52.422;13.024;2022-08-25T06:09:28;34.35;;;28.45;;
18196;SDS011;9224;52.422;13.024;2022-08-25T06:11:54;33.20;;;29.00;;
18196;SDS011;9224;52.422;13.024;2022-08-25T06:14:21;33.03;;;28.45;;
18196;SDS011;9224;52.422;13.024;2022-08-25T06:16:48;33.85;;;28.50;;
18196;SDS011;9224;52.422;13.024;2022-08-25T06:19:15;35.10;;;29.37;;
18196;SDS011;9224;52.422;13.024;2022-08-25T06:21:42;34.97;;;29.33;;
18196;SDS011;9224;52.422;13.024;2022-08-25T06:24:10;33.45;;;28.10;;
18196;SDS011;9224;52.422;13.024;2022-08-25T06:26:37;35.33;;;29.42;;
18196;SDS011;9224;52.422;13.024;2022-08-25T06:29:03;35.95;;;29.25;;
18196;SDS011;9224;52.422;13.024;2022-08-25T06:31:30;32.70;;;28.85;;
18196;SDS011;9224;52.422;13.024;2022-08-25T06:33:56;31.95;;;28.48;;
18196;SDS011;9224;52.422;13.024;2022-08-25T06:36:23;35.63;;;29.63;;
18196;SDS011;9224;52.422;13.024;2022-08-25T06:38:50;34.58;;;29.83;;
18196;SDS011;9224;52.422;13.024;2022-08-25T06:41:18;32.13;;;28.52;;
18196;SDS011;9224;52.422;13.024;2022-08-25T06:43:45;35.65;;;29.95;;
18196;SDS011;9224;52.422;13.024;2022-08-25T06:46:12;34.13;;;28.73;;
18196;SDS011;9224;52.422;13.024;2022-08-25T06:48:41;32.70;;;27.90;;
18196;SDS011;9224;52.422;13.024;2022-08-25T06:51:08;32.17;;;28.25;;
18196;SDS011;9224;52.422;13.024;2022-08-25T06:53:35;30.13;;;26.90;;
18196;SDS011;9224;52.422;13.024;2022-08-25T06:56:02;32.50;;;28.60;;
18196;SDS011;9224;52.422;13.024;2022-08-25T06:58:31;30.83;;;27.30;;
18196;SDS011;9224;52.422;13.024;2022-08-25T07:01:05;31.10;;;27.73;;
18196;SDS011;9224;52.422;13.024;2022-08-25T07:03:32;29.88;;;26.67;;
18196;SDS011;9224;52.422;13.024;2022-08-25T07:05:58;29.65;;;25.42;;
18196;SDS011;9224;52.422;13.024;2022-08-25T07:08:25;29.92;;;26.92;;
18196;SDS011;9224;52.422;13.024;2022-08-25T07:10:52;30.02;;;26.90;;
18196;SDS011;9224;52.422;13.024;2022-08-25T07:13:18;30.57;;;27.30;;
18196;SDS011;9224;52.422;13.024;2022-08-25T07:15:46;28.65;;;25.65;;
18196;SDS011;9224;52.422;13.024;2022-08-25T07:18:12;28.23;;;25.52;;
18196;SDS011;9224;52.422;13.024;2022-08-25T07:20:39;29.70;;;26.70;;
18196;SDS011;9224;52.422;13.024;2022-08-25T07:23:06;28.15;;;25.25;;
18196;SDS011;9224;52.422;13.024;2022-08-25T07:25:33;27.40;;;24.70;;
18196;SDS011;9224;52.422;13.024;2022-08-25T07:28:00;27.77;;;24.98;;
18196;SDS011;9224;52.422;13.024;2022-08-25T07:30:27;26.38;;;23.63;;
18196;SDS011;9224;52.422;13.024;2022-08-25T07:32:54;26.67;;;23.98;;
18196;SDS011;9224;52.422;13.024;2022-08-25T07:35:21;24.58;;;22.08;;
18196;SDS011;9224;52.422;13.024;2022-08-25T07:37:50;24.85;;;22.35;;
18196;SDS011;9224;52.422;13.024;2022-08-25T07:40:18;25.00;;;22.40;;
18196;SDS011;9224;52.422;13.024;2022-08-25T07:42:46;24.02;;;21.73;;
18196;SDS011;9224;52.422;13.024;2022-08-25T07:45:13;24.83;;;22.30;;
18196;SDS011;9224;52.422;13.024;2022-08-25T07:47:40;22.73;;;20.63;;
18196;SDS011;9224;52.422;13.024;2022-08-25T07:50:09;23.13;;;20.73;;
18196;SDS011;9224;52.422;13.024;2022-08-25T07:52:36;21.20;;;19.10;;
18196;SDS011;9224;52.422;13.024;2022-08-25T07:55:03;22.53;;;20.10;;
18196;SDS011;9224;52.422;13.024;2022-08-25T07:57:32;23.35;;;20.85;;
18196;SDS011;9224;52.422;13.024;2022-08-25T07:59:58;21.90;;;19.90;;
18196;SDS011;9224;52.422;13.024;2022-08-25T08:02:25;21.08;;;19.05;;
18196;SDS011;9224;52.422;13.024;2022-08-25T08:04:52;22.33;;;20.13;;
18196;SDS011;9224;52.422;13.024;2022-08-25T08:07:20;20.73;;;18.65;;
18196;SDS011;9224;52.422;13.024;2022-08-25T08:09:48;22.23;;;19.63;;
18196;SDS011;9224;52.422;13.024;2022-08-25T08:12:17;23.35;;;20.95;;
18196;SDS011;9224;52.422;13.024;2022-08-25T08:14:43;23.23;;;20.98;;
18196;SDS011;9224;52.422;13.024;2022-08-25T08:17:10;25.00;;;22.33;;
18196;SDS011;9224;52.422;13.024;2022-08-25T08:19:37;23.60;;;21.30;;
18196;SDS011;9224;52.422;13.024;2022-08-25T08:22:04;23.93;;;21.53;;
18196;SDS011;9224;52.422;13.024;2022-08-25T08:24:33;25.30;;;22.85;;
18196;SDS011;9224;52.422;13.024;2022-08-25T08:27:03;23.52;;;21.30;;
18196;SDS011;9224;52.422;13.024;2022-08-25T08:29:30;22.33;;;20.02;;
18196;SDS011;9224;52.422;13.024;2022-08-25T08:31:56;21.60;;;19.35;;
18196;SDS011;9224;52.422;13.024;2022-08-25T08:34:23;22.45;;;20.25;;
18196;SDS011;9224;52.422;13.024;2022-08-25T08:36:50;24.17;;;21.77;;
18196;SDS011;9224;52.422;13.024;2022-08-25T08:39:16;23.77;;;21.33;;
18196;SDS011;9224;52.422;13.024;2022-08-25T08:41:48;23.80;;;21.50;;
18196;SDS011;9224;52.422;13.024;2022-08-25T08:44:41;24.48;;;22.17;;
18196;SDS011;9224;52.422;13.024;2022-08-25T08:47:15;25.48;;;22.77;;
18196;SDS011;9224;52.422;13.024;2022-08-25T08:49:48;24.10;;;21.80;;
18196;SDS011;9224;52.422;13.024;2022-08-25T08:52:18;23.70;;;21.30;;
18196;SDS011;9224;52.422;13.024;2022-08-25T08:54:51;21.73;;;19.70;;
18196;SDS011;9224;52.422;13.024;2022-08-25T08:57:25;23.50;;;21.13;;
18196;SDS011;9224;52.422;13.024;2022-08-25T08:59:54;22.38;;;20.17;;
18196;SDS011;9224;52.422;13.024;2022-08-25T09:02:24;21.25;;;19.15;;
18196;SDS011;9224;52.422;13.024;2022-08-25T09:04:52;19.20;;;17.40;;
18196;SDS011;9224;52.422;13.024;2022-08-25T09:07:22;18.80;;;16.90;;
18196;SDS011;9224;52.422;13.024;2022-08-25T09:09:52;18.08;;;16.27;;
18196;SDS011;9224;52.422;13.024;2022-08-25T09:12:21;17.58;;;15.90;;
18196;SDS011;9224;52.422;13.024;2022-08-25T09:14:58;15.52;;;14.02;;
18196;SDS011;9224;52.422;13.024;2022-08-25T09:17:36;15.85;;;14.13;;
18196;SDS011;9224;52.422;13.024;2022-08-25T09:20:16;15.48;;;13.95;;
18196;SDS011;9224;52.422;13.024;2022-08-25T09:22:55;14.43;;;13.13;;
18196;SDS011;9224;52.422;13.024;2022-08-25T09:25:27;14.45;;;13.05;;
18196;SDS011;9224;52.422;13.024;2022-08-25T09:28:04;14.45;;;12.98;;
18196;SDS011;9224;52.422;13.024;2022-08-25T09:30:36;14.15;;;12.65;;
18196;SDS011;9224;52.422;13.024;2022-08-25T09:33:07;15.20;;;13.57;;
18196;SDS011;9224;52.422;13.024;2022-08-25T09:35:35;14.63;;;13.18;;
18196;SDS011;9224;52.422;13.024;2022-08-25T09:38:05;15.53;;;13.53;;
18196;SDS011;9224;52.422;13.024;2022-08-25T09:40:34;14.02;;;12.60;;
18196;SDS011;9224;52.422;13.024;2022-08-25T09:43:04;15.38;;;13.80;;
18196;SDS011;9224;52.422;13.024;2022-08-25T09:45:44;13.88;;;12.43;;
18196;SDS011;9224;52.422;13.024;2022-08-25T09:48:22;14.15;;;12.65;;
18196;SDS011;9224;52.422;13.024;2022-08-25T09:50:52;15.02;;;13.38;;
18196;SDS011;9224;52.422;13.024;2022-08-25T09:53:23;14.15;;;12.63;;
18196;SDS011;9224;52.422;13.024;2022-08-25T09:55:51;14.65;;;12.88;;
18196;SDS011;9224;52.422;13.024;2022-08-25T09:58:23;15.27;;;13.20;;
18196;SDS011;9224;52.422;13.024;2022-08-25T10:01:00;15.73;;;14.05;;
18196;SDS011;9224;52.422;13.024;2022-08-25T10:03:32;15.30;;;13.75;;
18196;SDS011;9224;52.422;13.024;2022-08-25T10:06:00;14.88;;;12.82;;
18196;SDS011;9224;52.422;13.024;2022-08-25T10:08:31;15.57;;;14.00;;
18196;SDS011;9224;52.422;13.024;2022-08-25T10:11:00;15.73;;;14.07;;
18196;SDS011;9224;52.422;13.024;2022-08-25T10:13:35;15.30;;;13.70;;
18196;SDS011;9224;52.422;13.024;2022-08-25T10:16:06;16.47;;;13.67;;
18196;SDS011;9224;52.422;13.024;2022-08-25T10:18:34;15.57;;;13.95;;
18196;SDS011;9224;52.422;13.024;2022-08-25T10:21:02;16.05;;;14.35;;
18196;SDS011;9224;52.422;13.024;2022-08-25T10:23:31;16.08;;;13.63;;
18196;SDS011;9224;52.422;13.024;2022-08-25T10:25:59;16.88;;;13.73;;
18196;SDS011;9224;52.422;13.024;2022-08-25T10:28:31;15.15;;;13.65;;
18196;SDS011;9224;52.422;13.024;2022-08-25T10:31:04;15.18;;;13.57;;
18196;SDS011;9224;52.422;13.024;2022-08-25T10:33:35;17.67;;;13.85;;
18196;SDS011;9224;52.422;13.024;2022-08-25T10:36:07;17.65;;;13.30;;
18196;SDS011;9224;52.422;13.024;2022-08-25T10:38:39;15.73;;;13.87;;
18196;SDS011;9224;52.422;13.024;2022-08-25T10:41:16;15.18;;;13.27;;
18196;SDS011;9224;52.422;13.024;2022-08-25T10:43:52;14.93;;;13.43;;
18196;SDS011;9224;52.422;13.024;2022-08-25T10:46:26;14.43;;;12.77;;
18196;SDS011;9224;52.422;13.024;2022-08-25T10:49:01;13.73;;;11.98;;
18196;SDS011;9224;52.422;13.024;2022-08-25T10:51:40;13.50;;;12.10;;
18196;SDS011;9224;52.422;13.024;2022-08-25T10:54:19;12.85;;;11.55;;
18196;SDS011;9224;52.422;13.024;2022-08-25T10:56:56;13.52;;;11.32;;
18196;SDS011;9224;52.422;13.024;2022-08-25T11:02:27;13.13;;;10.30;;
18196;SDS011;9224;52.422;13.024;2022-08-25T11:05:28;11.82;;;10.27;;
18196;SDS011;9224;52.422;13.024;2022-08-25T11:08:04;12.48;;;10.43;;
18196;SDS011;9224;52.422;13.024;2022-08-25T11:10:34;13.68;;;10.10;;
18196;SDS011;9224;52.422;13.024;2022-08-25T11:13:06;12.43;;;9.90;;
18196;SDS011;9224;52.422;13.024;2022-08-25T11:15:36;12.27;;;9.93;;
18196;SDS011;9224;52.422;13.024;2022-08-25T11:18:06;11.70;;;8.68;;
18196;SDS011;9224;52.422;13.024;2022-08-25T11:20:36;11.23;;;9.05;;
18196;SDS011;9224;52.422;13.024;2022-08-25T11:23:07;13.10;;;9.20;;
18196;SDS011;9224;52.422;13.024;2022-08-25T11:25:37;12.23;;;9.40;;
18196;SDS011;9224;52.422;13.024;2022-08-25T11:28:09;11.93;;;9.07;;
18196;SDS011;9224;52.422;13.024;2022-08-25T11:30:38;12.15;;;8.55;;
18196;SDS011;9224;52.422;13.024;2022-08-25T11:33:06;10.13;;;9.17;;
18196;SDS011;9224;52.422;13.024;2022-08-25T11:35:37;10.32;;;7.75;;
18196;SDS011;9224;52.422;13.024;2022-08-25T11:38:10;13.07;;;8.80;;
18196;SDS011;9224;52.422;13.024;2022-08-25T11:40:47;10.52;;;8.30;;
18196;SDS011;9224;52.422;13.024;2022-08-25T11:43:25;11.68;;;8.20;;
18196;SDS011;9224;52.422;13.024;2022-08-25T11:45:58;11.00;;;8.40;;
18196;SDS011;9224;52.422;13.024;2022-08-25T11:48:36;10.18;;;7.90;;
18196;SDS011;9224;52.422;13.024;2022-08-25T11:51:06;9.25;;;7.95;;
18196;SDS011;9224;52.422;13.024;2022-08-25T11:53:34;11.43;;;7.90;;
18196;SDS011;9224;52.422;13.024;2022-08-25T11:56:03;9.97;;;7.73;;
18196;SDS011;9224;52.422;13.024;2022-08-25T11:58:32;10.20;;;7.43;;
18196;SDS011;9224;52.422;13.024;2022-08-25T12:01:08;9.40;;;7.75;;
18196;SDS011;9224;52.422;13.024;2022-08-25T12:03:47;14.83;;;8.77;;
18196;SDS011;9224;52.422;13.024;2022-08-25T12:06:17;17.55;;;9.40;;
18196;SDS011;9224;52.422;13.024;2022-08-25T12:08:47;15.50;;;10.02;;
18196;SDS011;9224;52.422;13.024;2022-08-25T12:14:14;12.00;;;7.78;;
18196;SDS011;9224;52.422;13.024;2022-08-25T12:16:58;10.73;;;7.97;;
18196;SDS011;9224;52.422;13.024;2022-08-25T12:28:30;11.40;;;7.93;;
18196;SDS011;9224;52.422;13.024;2022-08-25T12:31:16;8.20;;;7.07;;
18196;SDS011;9224;52.422;13.024;2022-08-25T12:33:51;10.20;;;7.95;;
18196;SDS011;9224;52.422;13.024;2022-08-25T12:36:26;12.57;;;8.00;;
18196;SDS011;9224;52.422;13.024;2022-08-25T12:38:56;9.47;;;7.10;;
18196;SDS011;9224;52.422;13.024;2022-08-25T12:41:34;8.68;;;6.60;;
18196;SDS011;9224;52.422;13.024;2022-08-25T12:44:08;12.30;;;7.38;;
18196;SDS011;9224;52.422;13.024;2022-08-25T12:46:42;11.13;;;7.57;;
18196;SDS011;9224;52.422;13.024;2022-08-25T12:51:56;8.57;;;7.05;;
18196;SDS011;9224;52.422;13.024;2022-08-25T12:54:30;12.68;;;7.30;;
18196;SDS011;9224;52.422;13.024;2022-08-25T12:57:06;10.48;;;6.93;;
18196;SDS011;9224;52.422;13.024;2022-08-25T12:59:48;9.27;;;7.32;;
18196;SDS011;9224;52.422;13.024;2022-08-25T13:02:27;10.20;;;7.90;;
18196;SDS011;9224;52.422;13.024;2022-08-25T13:05:21;9.68;;;7.32;;
18196;SDS011;9224;52.422;13.024;2022-08-25T13:08:00;9.27;;;6.88;;
18196;SDS011;9224;52.422;13.024;2022-08-25T13:10:43;10.20;;;7.10;;
18196;SDS011;9224;52.422;13.024;2022-08-25T13:13:14;10.55;;;6.95;;
18196;SDS011;9224;52.422;13.024;2022-08-25T13:15:45;14.75;;;7.07;;
18196;SDS011;9224;52.422;13.024;2022-08-25T13:18:17;9.57;;;6.68;;
18196;SDS011;9224;52.422;13.024;2022-08-25T13:20:46;10.48;;;6.82;;
18196;SDS011;9224;52.422;13.024;2022-08-25T13:23:15;10.82;;;6.78;;
18196;SDS011;9224;52.422;13.024;2022-08-25T13:25:47;10.52;;;6.78;;
18196;SDS011;9224;52.422;13.024;2022-08-25T13:28:18;12.40;;;7.47;;
18196;SDS011;9224;52.422;13.024;2022-08-25T13:30:54;10.48;;;7.07;;
18196;SDS011;9224;52.422;13.024;2022-08-25T13:33:22;11.05;;;6.70;;
18196;SDS011;9224;52.422;13.024;2022-08-25T13:35:50;10.20;;;6.80;;
18196;SDS011;9224;52.422;13.024;2022-08-25T13:38:38;9.65;;;7.22;;
18196;SDS011;9224;52.422;13.024;2022-08-25T13:41:06;9.65;;;6.75;;
18196;SDS011;9224;52.422;13.024;2022-08-25T13:43:33;8.53;;;6.90;;
18196;SDS011;9224;52.422;13.024;2022-08-25T13:46:00;9.67;;;6.97;;
18196;SDS011;9224;52.422;13.024;2022-08-25T13:48:31;13.20;;;7.13;;
18196;SDS011;9224;52.422;13.024;2022-08-25T13:51:04;12.27;;;7.65;;
18196;SDS011;9224;52.422;13.024;2022-08-25T13:53:33;14.50;;;6.97;;
18196;SDS011;9224;52.422;13.024;2022-08-25T13:56:00;12.43;;;7.05;;
18196;SDS011;9224;52.422;13.024;2022-08-25T13:58:29;13.30;;;7.30;;
18196;SDS011;9224;52.422;13.024;2022-08-25T14:01:00;12.95;;;6.97;;
18196;SDS011;9224;52.422;13.024;2022-08-25T14:03:32;12.00;;;6.70;;
18196;SDS011;9224;52.422;13.024;2022-08-25T14:06:03;11.65;;;7.10;;
18196;SDS011;9224;52.422;13.024;2022-08-25T14:08:31;9.40;;;6.80;;
18196;SDS011;9224;52.422;13.024;2022-08-25T14:11:05;11.75;;;6.65;;
18196;SDS011;9224;52.422;13.024;2022-08-25T14:13:34;11.07;;;6.97;;
18196;SDS011;9224;52.422;13.024;2022-08-25T14:16:08;10.93;;;6.55;;
18196;SDS011;9224;52.422;13.024;2022-08-25T14:18:38;9.45;;;6.70;;
18196;SDS011;9224;52.422;13.024;2022-08-25T14:21:12;10.73;;;6.82;;
18196;SDS011;9224;52.422;13.024;2022-08-25T14:23:40;9.15;;;6.72;;
18196;SDS011;9224;52.422;13.024;2022-08-25T14:26:07;10.00;;;6.45;;
18196;SDS011;9224;52.422;13.024;2022-08-25T14:28:35;10.63;;;6.50;;
18196;SDS011;9224;52.422;13.024;2022-08-25T14:31:03;10.90;;;6.35;;
18196;SDS011;9224;52.422;13.024;2022-08-25T14:33:33;8.57;;;6.45;;
18196;SDS011;9224;52.422;13.024;2022-08-25T14:36:01;11.40;;;6.70;;
18196;SDS011;9224;52.422;13.024;2022-08-25T14:38:30;9.88;;;6.03;;
18196;SDS011;9224;52.422;13.024;2022-08-25T14:40:57;10.30;;;6.78;;
18196;SDS011;9224;52.422;13.024;2022-08-25T14:43:24;9.82;;;6.18;;
18196;SDS011;9224;52.422;13.024;2022-08-25T14:45:52;9.45;;;6.60;;
18196;SDS011;9224;52.422;13.024;2022-08-25T14:48:20;9.98;;;6.40;;
18196;SDS011;9224;52.422;13.024;2022-08-25T14:50:49;11.50;;;6.32;;
18196;SDS011;9224;52.422;13.024;2022-08-25T14:53:16;11.77;;;6.47;;
18196;SDS011;9224;52.422;13.024;2022-08-25T14:55:42;9.88;;;6.57;;
18196;SDS011;9224;52.422;13.024;2022-08-25T14:58:09;9.88;;;6.35;;
18196;SDS011;9224;52.422;13.024;2022-08-25T15:00:36;11.27;;;6.28;;